Flight Number: AVA5160 Duration: 8:00
Departure: Luanda (FNLU) at 06:30 Distance: 4074 Nm
Arrival: Moscow Sheremetyevo (UUEE) at 14:30 Equipment: B747

Weather Information
Luanda, Angola (FNLU) 08-51S 013-14E 70M Feb 27, 2024 - 10:00 AM EST / 2024.02.27 1500 UTC
Wind: from the W (280 degrees) at 10 MPH (9 KT) (direction variable):0
Visibility: greater than 7 mile(s):0
Sky conditions: partly cloudy Weather: Cumulonimbus clouds observed Temperature: 86 F (30 C) Heat index: 99.3 F (37.4 C):1 Dew Point: 78 F (26 C) Relative Humidity: 79% Pressure (altimeter): 29.74 in. Hg (1007 hPa)
ob: FNLU 271500Z 28009KT 230V300 9999 SCT023 FEW024CB SCT080 30/26 Q1007 NOSIG cycle: 15
Sunrise: 05:13 Sunset: 17:26 (UTC)

Moscow / Sheremet'Ye , Russia (UUEE) 55-59N 037-30E Feb 27, 2024 - 10:00 AM EST / 2024.02.27 1500 UTC
Wind: from the SSE (160 degrees) at 7 MPH (6 KT):0
Visibility: greater than 7 mile(s):0 Temperature: 35 F (2 C)
Windchill: 28 F (-2 C):1 Dew Point: 24 F (-4 C) Relative Humidity: 64% Pressure (altimeter): 30.30 in. Hg (1026 hPa)
ob: UUEE 271500Z 16003MPS CAVOK 02/M04 Q1026 R24L/510140 R24C/510140 NOSIG cycle: 15
Sunrise: 04:30 Sunset: 14:55 (UTC)

TAF:2024/02/27 15:21 TAF UUEE 271353Z 2715/2815 17005G11MPS 9999 SCT016 TX03/2812Z TNM06/2804Z

Previous Pireps for this route
Date Flightnr Aircraft Flight time Fuel used Landing rate On time
2021-06-05AVA5160B74709.38205343-148No
2023-06-22AVA5160B74709.07195058-258No
(pireps marked green are flown by you)

Route map